Bakersfield (BFL/KBFL)

Map

Destinations

Information

Location
Bakersfield, CA
Local Time
16:23 / 4:23 pm
GMT Time
00:23 / 12:23 am
Gates
Unassigned
No FAA reported delays
METAR KBFL 222354Z 32013KT 10SM CLR 14/03 A3011 RMK AO2 SLP193 T01440033 10150 20117 56013
TAF KBFL 222331Z 2300/2324 33014KT P6SM SCT050 FM230500 33007KT P6SM SCT050
  • No charts available